sensor_id;sensor_type;location;lat;lon;timestamp;pressure;altitude;pressure_sealevel;temperature;humidity
5952;BME280;3001;42.622;23.194;2022-12-07T00:00:37;91190.44;;;10.59;83.45
5952;BME280;3001;42.622;23.194;2022-12-07T00:03:03;91189.53;;;10.55;83.33
5952;BME280;3001;42.622;23.194;2022-12-07T00:05:30;91188.13;;;10.58;82.55
5952;BME280;3001;42.622;23.194;2022-12-07T00:07:57;91183.25;;;10.48;84.32
5952;BME280;3001;42.622;23.194;2022-12-07T00:10:25;91172.97;;;10.34;85.74
5952;BME280;3001;42.622;23.194;2022-12-07T00:12:52;91170.41;;;10.43;85.72
5952;BME280;3001;42.622;23.194;2022-12-07T00:15:18;91174.22;;;10.45;86.50
5952;BME280;3001;42.622;23.194;2022-12-07T00:17:45;91179.09;;;10.38;87.23
5952;BME280;3001;42.622;23.194;2022-12-07T00:20:12;91170.66;;;10.33;86.92
5952;BME280;3001;42.622;23.194;2022-12-07T00:22:39;91165.19;;;10.34;86.68
5952;BME280;3001;42.622;23.194;2022-12-07T00:25:07;91185.63;;;10.36;86.44
5952;BME280;3001;42.622;23.194;2022-12-07T00:27:35;91173.91;;;10.38;86.38
5952;BME280;3001;42.622;23.194;2022-12-07T00:30:02;91166.34;;;10.20;87.91
5952;BME280;3001;42.622;23.194;2022-12-07T00:32:29;91177.22;;;10.30;87.12
5952;BME280;3001;42.622;23.194;2022-12-07T00:34:56;91174.03;;;10.33;87.97
5952;BME280;3001;42.622;23.194;2022-12-07T00:37:23;91174.25;;;10.15;88.56
5952;BME280;3001;42.622;23.194;2022-12-07T00:39:49;91173.38;;;10.20;89.17
5952;BME280;3001;42.622;23.194;2022-12-07T00:42:16;91177.94;;;10.14;87.94
5952;BME280;3001;42.622;23.194;2022-12-07T00:44:44;91164.19;;;10.14;88.18
5952;BME280;3001;42.622;23.194;2022-12-07T00:47:11;91167.53;;;10.14;88.25
5952;BME280;3001;42.622;23.194;2022-12-07T00:49:38;91167.25;;;10.16;87.85
5952;BME280;3001;42.622;23.194;2022-12-07T00:52:04;91161.47;;;10.19;88.23
5952;BME280;3001;42.622;23.194;2022-12-07T00:54:31;91169.09;;;10.24;88.40
5952;BME280;3001;42.622;23.194;2022-12-07T00:56:58;91164.81;;;10.19;88.77
5952;BME280;3001;42.622;23.194;2022-12-07T00:59:25;91165.75;;;10.23;87.91
5952;BME280;3001;42.622;23.194;2022-12-07T01:01:53;91167.41;;;10.19;87.39
5952;BME280;3001;42.622;23.194;2022-12-07T01:04:20;91170.50;;;10.21;87.12
5952;BME280;3001;42.622;23.194;2022-12-07T01:06:46;91169.53;;;10.17;87.13
5952;BME280;3001;42.622;23.194;2022-12-07T01:09:13;91164.06;;;10.19;87.36
5952;BME280;3001;42.622;23.194;2022-12-07T01:11:40;91169.09;;;10.24;87.80
5952;BME280;3001;42.622;23.194;2022-12-07T01:14:08;91162.81;;;10.16;87.53
5952;BME280;3001;42.622;23.194;2022-12-07T01:16:35;91160.84;;;10.22;87.31
5952;BME280;3001;42.622;23.194;2022-12-07T01:19:03;91170.19;;;10.31;87.36
5952;BME280;3001;42.622;23.194;2022-12-07T01:21:32;91165.31;;;10.29;87.45
5952;BME280;3001;42.622;23.194;2022-12-07T01:24:00;91171.44;;;10.33;87.08
5952;BME280;3001;42.622;23.194;2022-12-07T01:26:27;91170.81;;;10.28;88.14
5952;BME280;3001;42.622;23.194;2022-12-07T01:28:54;91154.81;;;10.34;88.23
5952;BME280;3001;42.622;23.194;2022-12-07T01:31:25;91156.00;;;10.37;88.66
5952;BME280;3001;42.622;23.194;2022-12-07T01:33:53;91150.78;;;10.28;89.65
5952;BME280;3001;42.622;23.194;2022-12-07T01:36:24;91150.03;;;10.28;90.31
5952;BME280;3001;42.622;23.194;2022-12-07T01:38:54;91149.28;;;10.36;91.23
5952;BME280;3001;42.622;23.194;2022-12-07T01:41:23;91142.25;;;10.28;92.13
5952;BME280;3001;42.622;23.194;2022-12-07T01:44:23;91143.47;;;10.22;92.76
5952;BME280;3001;42.622;23.194;2022-12-07T01:46:52;91143.13;;;10.15;93.38
5952;BME280;3001;42.622;23.194;2022-12-07T01:49:31;91141.13;;;10.12;93.44
5952;BME280;3001;42.622;23.194;2022-12-07T01:52:13;91133.53;;;10.16;92.87
5952;BME280;3001;42.622;23.194;2022-12-07T01:54:42;91129.06;;;10.16;93.12
5952;BME280;3001;42.622;23.194;2022-12-07T01:57:10;91122.78;;;10.09;93.14
5952;BME280;3001;42.622;23.194;2022-12-07T01:59:39;91122.22;;;10.20;92.14
5952;BME280;3001;42.622;23.194;2022-12-07T02:02:12;91127.28;;;10.25;91.86
5952;BME280;3001;42.622;23.194;2022-12-07T02:04:43;91125.09;;;10.10;91.59
5952;BME280;3001;42.622;23.194;2022-12-07T02:07:12;91118.53;;;10.04;91.05
5952;BME280;3001;42.622;23.194;2022-12-07T02:09:39;91130.25;;;10.02;91.74
5952;BME280;3001;42.622;23.194;2022-12-07T02:12:06;91131.25;;;9.92;91.45
5952;BME280;3001;42.622;23.194;2022-12-07T02:14:33;91129.69;;;9.83;91.96
5952;BME280;3001;42.622;23.194;2022-12-07T02:17:08;91121.88;;;9.74;92.18
5952;BME280;3001;42.622;23.194;2022-12-07T02:22:57;91119.84;;;9.63;92.34
5952;BME280;3001;42.622;23.194;2022-12-07T02:25:39;91118.16;;;9.67;91.48
5952;BME280;3001;42.622;23.194;2022-12-07T02:28:17;91116.22;;;9.72;91.70
5952;BME280;3001;42.622;23.194;2022-12-07T02:30:48;91113.19;;;9.79;91.01
5952;BME280;3001;42.622;23.194;2022-12-07T02:33:19;91113.16;;;9.70;91.26
5952;BME280;3001;42.622;23.194;2022-12-07T02:35:56;91112.13;;;9.80;91.83
5952;BME280;3001;42.622;23.194;2022-12-07T02:38:29;91115.63;;;9.75;91.26
5952;BME280;3001;42.622;23.194;2022-12-07T02:41:00;91116.72;;;9.83;91.00
5952;BME280;3001;42.622;23.194;2022-12-07T02:43:30;91109.72;;;9.83;90.51
5952;BME280;3001;42.622;23.194;2022-12-07T02:46:04;91093.84;;;9.85;90.50
5952;BME280;3001;42.622;23.194;2022-12-07T02:48:33;91103.44;;;9.76;90.48
5952;BME280;3001;42.622;23.194;2022-12-07T02:51:00;91090.91;;;9.78;90.95
5952;BME280;3001;42.622;23.194;2022-12-07T02:53:32;91094.16;;;9.83;90.37
5952;BME280;3001;42.622;23.194;2022-12-07T02:56:03;91101.47;;;9.81;89.86
5952;BME280;3001;42.622;23.194;2022-12-07T02:58:40;91094.41;;;9.73;90.99
5952;BME280;3001;42.622;23.194;2022-12-07T03:01:19;91092.88;;;9.72;91.20
5952;BME280;3001;42.622;23.194;2022-12-07T03:04:00;91072.06;;;9.55;90.97
5952;BME280;3001;42.622;23.194;2022-12-07T03:06:32;91081.56;;;9.68;91.29
5952;BME280;3001;42.622;23.194;2022-12-07T03:09:10;91075.19;;;9.74;91.54
5952;BME280;3001;42.622;23.194;2022-12-07T03:11:45;91076.88;;;9.79;91.51
5952;BME280;3001;42.622;23.194;2022-12-07T03:14:16;91073.97;;;9.80;91.92
5952;BME280;3001;42.622;23.194;2022-12-07T03:16:48;91085.41;;;9.71;93.02
5952;BME280;3001;42.622;23.194;2022-12-07T03:19:19;91081.25;;;9.61;93.95
5952;BME280;3001;42.622;23.194;2022-12-07T03:21:52;91080.94;;;9.63;93.57
5952;BME280;3001;42.622;23.194;2022-12-07T03:24:25;91089.91;;;9.57;93.53
5952;BME280;3001;42.622;23.194;2022-12-07T03:26:57;91089.88;;;9.48;93.39
5952;BME280;3001;42.622;23.194;2022-12-07T03:29:30;91088.53;;;9.59;92.46
5952;BME280;3001;42.622;23.194;2022-12-07T03:32:02;91097.44;;;9.67;92.09
5952;BME280;3001;42.622;23.194;2022-12-07T03:34:34;91092.88;;;9.42;92.06
5952;BME280;3001;42.622;23.194;2022-12-07T03:37:05;91097.94;;;9.47;92.34
5952;BME280;3001;42.622;23.194;2022-12-07T03:39:39;91089.41;;;9.46;92.71
5952;BME280;3001;42.622;23.194;2022-12-07T03:42:08;91094.94;;;9.53;91.46
5952;BME280;3001;42.622;23.194;2022-12-07T03:44:37;91094.00;;;9.49;92.14
5952;BME280;3001;42.622;23.194;2022-12-07T03:47:12;91093.31;;;9.66;91.04
5952;BME280;3001;42.622;23.194;2022-12-07T03:49:44;91092.69;;;9.60;90.72
5952;BME280;3001;42.622;23.194;2022-12-07T03:52:17;91089.22;;;9.73;90.01
5952;BME280;3001;42.622;23.194;2022-12-07T03:54:51;91089.03;;;9.70;89.95
5952;BME280;3001;42.622;23.194;2022-12-07T03:57:19;91090.09;;;9.60;89.59
5952;BME280;3001;42.622;23.194;2022-12-07T03:59:46;91099.78;;;9.77;88.99
5952;BME280;3001;42.622;23.194;2022-12-07T04:02:15;91094.63;;;9.85;88.65
5952;BME280;3001;42.622;23.194;2022-12-07T04:04:43;91087.44;;;9.82;88.66
5952;BME280;3001;42.622;23.194;2022-12-07T04:07:09;91086.88;;;9.94;87.56
5952;BME280;3001;42.622;23.194;2022-12-07T04:09:39;91077.09;;;9.91;87.76
5952;BME280;3001;42.622;23.194;2022-12-07T04:12:06;91085.41;;;10.01;86.72
5952;BME280;3001;42.622;23.194;2022-12-07T04:14:33;91086.25;;;9.97;87.02
5952;BME280;3001;42.622;23.194;2022-12-07T04:16:59;91089.91;;;9.96;87.73
5952;BME280;3001;42.622;23.194;2022-12-07T04:19:29;91088.50;;;9.90;87.99
5952;BME280;3001;42.622;23.194;2022-12-07T04:21:58;91090.22;;;9.94;88.13
5952;BME280;3001;42.622;23.194;2022-12-07T04:24:26;91093.13;;;9.93;87.64
5952;BME280;3001;42.622;23.194;2022-12-07T04:26:53;91091.00;;;9.95;88.17
5952;BME280;3001;42.622;23.194;2022-12-07T04:29:20;91090.22;;;9.94;88.31
5952;BME280;3001;42.622;23.194;2022-12-07T04:31:47;91091.59;;;10.00;87.37
5952;BME280;3001;42.622;23.194;2022-12-07T04:34:14;91086.66;;;9.82;88.09
5952;BME280;3001;42.622;23.194;2022-12-07T04:36:43;91091.88;;;9.90;87.77
5952;BME280;3001;42.622;23.194;2022-12-07T04:39:18;91095.41;;;9.94;87.62
5952;BME280;3001;42.622;23.194;2022-12-07T04:41:45;91094.72;;;9.80;88.86
5952;BME280;3001;42.622;23.194;2022-12-07T04:44:13;91090.31;;;9.81;89.37
5952;BME280;3001;42.622;23.194;2022-12-07T04:46:40;91091.38;;;9.80;88.37
5952;BME280;3001;42.622;23.194;2022-12-07T04:49:08;91090.50;;;9.84;87.55
5952;BME280;3001;42.622;23.194;2022-12-07T04:51:34;91092.94;;;9.89;87.20
5952;BME280;3001;42.622;23.194;2022-12-07T04:54:03;91082.81;;;9.79;87.04
5952;BME280;3001;42.622;23.194;2022-12-07T04:56:30;91095.78;;;9.79;86.08
5952;BME280;3001;42.622;23.194;2022-12-07T04:58:57;91095.41;;;9.94;86.38
5952;BME280;3001;42.622;23.194;2022-12-07T05:01:24;91093.44;;;10.00;86.23
5952;BME280;3001;42.622;23.194;2022-12-07T05:03:51;91089.00;;;10.00;85.51
5952;BME280;3001;42.622;23.194;2022-12-07T05:06:18;91092.88;;;10.03;85.34
5952;BME280;3001;42.622;23.194;2022-12-07T05:08:45;91086.06;;;9.85;86.81
5952;BME280;3001;42.622;23.194;2022-12-07T05:11:14;91090.31;;;9.81;87.97
5952;BME280;3001;42.622;23.194;2022-12-07T05:14:02;91092.63;;;9.82;87.26
5952;BME280;3001;42.622;23.194;2022-12-07T05:16:29;91099.50;;;9.87;87.12
5952;BME280;3001;42.622;23.194;2022-12-07T05:18:56;91098.88;;;9.81;87.67
5952;BME280;3001;42.622;23.194;2022-12-07T05:21:23;91098.72;;;9.78;88.19
5952;BME280;3001;42.622;23.194;2022-12-07T05:23:50;91102.50;;;9.80;88.73
5952;BME280;3001;42.622;23.194;2022-12-07T05:26:18;91108.75;;;9.79;89.02
5952;BME280;3001;42.622;23.194;2022-12-07T05:28:45;91091.66;;;9.78;88.45
5952;BME280;3001;42.622;23.194;2022-12-07T05:31:15;91110.56;;;9.70;89.87
5952;BME280;3001;42.622;23.194;2022-12-07T05:33:42;91105.25;;;9.75;89.30
5952;BME280;3001;42.622;23.194;2022-12-07T05:36:09;91107.25;;;9.78;89.26
5952;BME280;3001;42.622;23.194;2022-12-07T05:38:36;91103.00;;;9.82;88.94
5952;BME280;3001;42.622;23.194;2022-12-07T05:41:03;91100.56;;;9.86;89.08
5952;BME280;3001;42.622;23.194;2022-12-07T05:43:32;91101.34;;;9.86;88.64
5952;BME280;3001;42.622;23.194;2022-12-07T05:45:59;91096.41;;;9.76;89.69
5952;BME280;3001;42.622;23.194;2022-12-07T05:48:26;91094.16;;;9.83;90.02
5952;BME280;3001;42.622;23.194;2022-12-07T05:50:53;91093.97;;;9.80;90.07
5952;BME280;3001;42.622;23.194;2022-12-07T05:53:19;91088.91;;;9.66;90.23
5952;BME280;3001;42.622;23.194;2022-12-07T05:55:46;91084.91;;;9.60;91.00
5952;BME280;3001;42.622;23.194;2022-12-07T05:58:13;91082.38;;;9.77;90.51
5952;BME280;3001;42.622;23.194;2022-12-07T06:00:58;91088.00;;;9.79;90.28
5952;BME280;3001;42.622;23.194;2022-12-07T06:03:25;91079.78;;;9.77;90.28
5952;BME280;3001;42.622;23.194;2022-12-07T06:05:52;91090.31;;;9.81;90.46
5952;BME280;3001;42.622;23.194;2022-12-07T06:08:19;91082.72;;;9.84;90.12
5952;BME280;3001;42.622;23.194;2022-12-07T06:10:47;91084.25;;;9.85;89.97
5952;BME280;3001;42.622;23.194;2022-12-07T06:13:35;91084.88;;;9.91;89.32
5952;BME280;3001;42.622;23.194;2022-12-07T06:16:02;91087.47;;;9.99;89.50
5952;BME280;3001;42.622;23.194;2022-12-07T06:18:29;91091.19;;;10.07;89.27
5952;BME280;3001;42.622;23.194;2022-12-07T06:20:56;91088.31;;;10.08;88.99
5952;BME280;3001;42.622;23.194;2022-12-07T06:23:22;91092.13;;;10.02;89.09
5952;BME280;3001;42.622;23.194;2022-12-07T06:25:49;91094.66;;;9.94;89.91
5952;BME280;3001;42.622;23.194;2022-12-07T06:28:16;91081.81;;;9.97;89.72
5952;BME280;3001;42.622;23.194;2022-12-07T06:30:43;91086.50;;;9.87;90.00
5952;BME280;3001;42.622;23.194;2022-12-07T06:33:11;91091.25;;;9.85;89.46
5952;BME280;3001;42.622;23.194;2022-12-07T06:35:37;91090.38;;;9.98;89.59
5952;BME280;3001;42.622;23.194;2022-12-07T06:38:04;91090.66;;;9.96;89.74
5952;BME280;3001;42.622;23.194;2022-12-07T06:40:31;91095.41;;;9.94;89.88
5952;BME280;3001;42.622;23.194;2022-12-07T06:42:58;91096.25;;;10.03;89.71
5952;BME280;3001;42.622;23.194;2022-12-07T06:45:24;91097.44;;;10.06;89.45
5952;BME280;3001;42.622;23.194;2022-12-07T06:47:51;91108.16;;;10.13;89.16
5952;BME280;3001;42.622;23.194;2022-12-07T06:50:19;91093.38;;;10.22;88.33
5952;BME280;3001;42.622;23.194;2022-12-07T06:52:46;91097.69;;;10.34;88.33
5952;BME280;3001;42.622;23.194;2022-12-07T06:55:13;91106.53;;;10.25;88.60
5952;BME280;3001;42.622;23.194;2022-12-07T06:57:40;91105.44;;;10.26;88.60
5952;BME280;3001;42.622;23.194;2022-12-07T07:00:07;91102.56;;;10.36;88.34
5952;BME280;3001;42.622;23.194;2022-12-07T07:02:34;91110.81;;;10.38;87.92
5952;BME280;3001;42.622;23.194;2022-12-07T07:05:01;91115.41;;;10.32;87.85
5952;BME280;3001;42.622;23.194;2022-12-07T07:07:29;91105.00;;;10.41;87.34
5952;BME280;3001;42.622;23.194;2022-12-07T07:09:56;91104.84;;;10.29;88.06
5952;BME280;3001;42.622;23.194;2022-12-07T07:12:22;91101.81;;;10.35;87.98
5952;BME280;3001;42.622;23.194;2022-12-07T07:14:49;91111.41;;;10.35;88.21
5952;BME280;3001;42.622;23.194;2022-12-07T07:17:16;91111.84;;;10.28;87.83
5952;BME280;3001;42.622;23.194;2022-12-07T07:19:43;91106.38;;;10.30;88.29
5952;BME280;3001;42.622;23.194;2022-12-07T07:22:09;91107.31;;;10.51;87.28
5952;BME280;3001;42.622;23.194;2022-12-07T07:24:37;91118.75;;;10.33;87.75
5952;BME280;3001;42.622;23.194;2022-12-07T07:27:04;91107.31;;;10.42;87.78
5952;BME280;3001;42.622;23.194;2022-12-07T07:29:31;91103.34;;;10.36;88.23
5952;BME280;3001;42.622;23.194;2022-12-07T07:31:58;91105.63;;;10.46;86.82
5952;BME280;3001;42.622;23.194;2022-12-07T07:34:26;91105.50;;;10.43;87.03
5952;BME280;3001;42.622;23.194;2022-12-07T07:36:52;91102.41;;;10.49;87.09
5952;BME280;3001;42.622;23.194;2022-12-07T07:39:19;91109.63;;;10.44;87.49
5952;BME280;3001;42.622;23.194;2022-12-07T07:41:47;91116.00;;;10.46;87.23
5952;BME280;3001;42.622;23.194;2022-12-07T07:44:14;91117.88;;;10.54;86.85
5952;BME280;3001;42.622;23.194;2022-12-07T07:46:41;91120.94;;;10.56;86.55
5952;BME280;3001;42.622;23.194;2022-12-07T07:49:09;91122.91;;;10.51;86.96
5952;BME280;3001;42.622;23.194;2022-12-07T07:51:36;91123.81;;;10.55;86.26
5952;BME280;3001;42.622;23.194;2022-12-07T07:54:03;91118.47;;;10.60;85.55
5952;BME280;3001;42.622;23.194;2022-12-07T07:56:30;91123.66;;;10.60;85.82
5952;BME280;3001;42.622;23.194;2022-12-07T07:58:58;91129.94;;;10.67;84.98
5952;BME280;3001;42.622;23.194;2022-12-07T08:01:24;91128.25;;;10.71;85.10
5952;BME280;3001;42.622;23.194;2022-12-07T08:03:51;91125.09;;;10.74;84.49
5952;BME280;3001;42.622;23.194;2022-12-07T08:06:18;91125.09;;;10.74;84.48
5952;BME280;3001;42.622;23.194;2022-12-07T08:08:45;91133.00;;;10.69;85.45
5952;BME280;3001;42.622;23.194;2022-12-07T08:11:12;91123.22;;;10.66;85.63
5952;BME280;3001;42.622;23.194;2022-12-07T08:13:38;91125.06;;;10.66;85.69
5952;BME280;3001;42.622;23.194;2022-12-07T08:16:08;91129.03;;;10.63;85.45
5952;BME280;3001;42.622;23.194;2022-12-07T08:18:36;91119.56;;;10.76;85.68
5952;BME280;3001;42.622;23.194;2022-12-07T08:21:03;91121.72;;;10.82;85.74
5952;BME280;3001;42.622;23.194;2022-12-07T08:23:31;91127.34;;;10.67;85.51
5952;BME280;3001;42.622;23.194;2022-12-07T08:26:00;91118.97;;;10.62;86.76
5952;BME280;3001;42.622;23.194;2022-12-07T08:28:27;91127.22;;;10.64;86.45
5952;BME280;3001;42.622;23.194;2022-12-07T08:30:58;91127.06;;;10.69;86.54
5952;BME280;3001;42.622;23.194;2022-12-07T08:33:26;91129.19;;;10.67;86.64
5952;BME280;3001;42.622;23.194;2022-12-07T08:35:53;91122.94;;;10.85;85.88
5952;BME280;3001;42.622;23.194;2022-12-07T08:38:20;91124.31;;;10.74;86.29
5952;BME280;3001;42.622;23.194;2022-12-07T08:40:53;91120.34;;;10.76;86.41
5952;BME280;3001;42.622;23.194;2022-12-07T08:43:20;91120.94;;;10.82;85.49
5952;BME280;3001;42.622;23.194;2022-12-07T08:45:47;91122.78;;;10.90;85.56
5952;BME280;3001;42.622;23.194;2022-12-07T08:48:18;91117.13;;;10.96;86.04
5952;BME280;3001;42.622;23.194;2022-12-07T08:50:48;91117.44;;;11.12;85.54
5952;BME280;3001;42.622;23.194;2022-12-07T08:53:15;91120.03;;;11.20;85.21
5952;BME280;3001;42.622;23.194;2022-12-07T08:55:43;91106.25;;;11.20;85.42
5952;BME280;3001;42.622;23.194;2022-12-07T08:58:10;91118.16;;;11.46;83.67
5952;BME280;3001;42.622;23.194;2022-12-07T09:00:37;91105.31;;;11.41;83.64
5952;BME280;3001;42.622;23.194;2022-12-07T09:03:04;91104.53;;;11.49;83.08
5952;BME280;3001;42.622;23.194;2022-12-07T09:05:32;91102.88;;;11.45;83.29
5952;BME280;3001;42.622;23.194;2022-12-07T09:08:01;91103.78;;;11.49;82.25
5952;BME280;3001;42.622;23.194;2022-12-07T09:10:28;91108.53;;;11.47;82.61
5952;BME280;3001;42.622;23.194;2022-12-07T09:12:55;91110.63;;;11.53;81.00
5952;BME280;3001;42.622;23.194;2022-12-07T09:15:26;91100.09;;;11.67;80.68
5952;BME280;3001;42.622;23.194;2022-12-07T09:17:53;91097.03;;;11.65;79.23
5952;BME280;3001;42.622;23.194;2022-12-07T09:20:20;91101.47;;;11.56;80.73
5952;BME280;3001;42.622;23.194;2022-12-07T09:22:47;91099.22;;;11.37;79.98
5952;BME280;3001;42.622;23.194;2022-12-07T09:25:15;91101.03;;;11.37;80.64
5952;BME280;3001;42.622;23.194;2022-12-07T09:27:42;91096.75;;;11.41;80.13
5952;BME280;3001;42.622;23.194;2022-12-07T09:30:09;91093.22;;;11.45;79.00
5952;BME280;3001;42.622;23.194;2022-12-07T09:32:36;91095.34;;;11.52;79.63
5952;BME280;3001;42.622;23.194;2022-12-07T09:35:03;91090.44;;;11.59;78.62
5952;BME280;3001;42.622;23.194;2022-12-07T09:37:30;91086.91;;;11.72;78.60
5952;BME280;3001;42.622;23.194;2022-12-07T09:40:00;91098.47;;;11.83;76.60
5952;BME280;3001;42.622;23.194;2022-12-07T09:42:32;91090.69;;;11.83;77.88
5952;BME280;3001;42.622;23.194;2022-12-07T09:45:01;91089.09;;;11.99;77.68
5952;BME280;3001;42.622;23.194;2022-12-07T09:47:29;91074.22;;;12.07;78.55
5952;BME280;3001;42.622;23.194;2022-12-07T09:50:00;91073.25;;;12.12;77.58
5952;BME280;3001;42.622;23.194;2022-12-07T09:52:30;91062.09;;;12.32;78.11
5952;BME280;3001;42.622;23.194;2022-12-07T09:54:57;91059.94;;;12.34;79.11
5952;BME280;3001;42.622;23.194;2022-12-07T09:57:30;91063.13;;;12.39;77.60
5952;BME280;3001;42.622;23.194;2022-12-07T10:00:03;91065.19;;;12.75;76.32
5952;BME280;3001;42.622;23.194;2022-12-07T10:02:36;91065.25;;;12.87;76.25
5952;BME280;3001;42.622;23.194;2022-12-07T10:05:05;91060.69;;;12.63;76.38
5952;BME280;3001;42.622;23.194;2022-12-07T10:07:33;91070.59;;;12.70;75.79
5952;BME280;3001;42.622;23.194;2022-12-07T10:10:04;91059.09;;;12.91;75.75
5952;BME280;3001;42.622;23.194;2022-12-07T10:12:53;91049.25;;;12.76;76.21
5952;BME280;3001;42.622;23.194;2022-12-07T10:15:20;91045.19;;;12.67;76.30
5952;BME280;3001;42.622;23.194;2022-12-07T10:17:49;91051.84;;;12.76;76.85
5952;BME280;3001;42.622;23.194;2022-12-07T10:20:19;91048.16;;;12.77;76.67
5952;BME280;3001;42.622;23.194;2022-12-07T10:22:58;91036.06;;;12.73;76.25
5952;BME280;3001;42.622;23.194;2022-12-07T10:25:27;91044.59;;;12.82;76.66
5952;BME280;3001;42.622;23.194;2022-12-07T10:28:00;91043.59;;;12.74;76.23
5952;BME280;3001;42.622;23.194;2022-12-07T10:30:27;91037.94;;;12.72;77.35
5952;BME280;3001;42.622;23.194;2022-12-07T10:32:54;91028.69;;;12.75;77.58
5952;BME280;3001;42.622;23.194;2022-12-07T10:35:24;91027.50;;;12.72;76.67
5952;BME280;3001;42.622;23.194;2022-12-07T10:37:53;91025.63;;;12.61;77.37
5952;BME280;3001;42.622;23.194;2022-12-07T10:40:30;91022.50;;;12.67;76.06
5952;BME280;3001;42.622;23.194;2022-12-07T10:43:05;91026.81;;;12.63;77.04
5952;BME280;3001;42.622;23.194;2022-12-07T10:45:53;91034.13;;;12.49;76.87
5952;BME280;3001;42.622;23.194;2022-12-07T10:48:30;91025.28;;;12.62;76.99
5952;BME280;3001;42.622;23.194;2022-12-07T10:51:06;91011.22;;;12.55;76.74
5952;BME280;3001;42.622;23.194;2022-12-07T10:53:47;91020.56;;;12.56;76.24
5952;BME280;3001;42.622;23.194;2022-12-07T10:56:41;91017.47;;;12.62;76.11
5952;BME280;3001;42.622;23.194;2022-12-07T10:59:38;90998.28;;;12.67;76.28
5952;BME280;3001;42.622;23.194;2022-12-07T11:02:24;90998.28;;;12.67;76.48
5952;BME280;3001;42.622;23.194;2022-12-07T11:05:01;90993.75;;;12.76;75.49
5952;BME280;3001;42.622;23.194;2022-12-07T11:07:39;90982.50;;;12.84;74.60
5952;BME280;3001;42.622;23.194;2022-12-07T11:10:13;90987.84;;;12.87;75.10
5952;BME280;3001;42.622;23.194;2022-12-07T11:13:04;90997.44;;;12.95;74.51
5952;BME280;3001;42.622;23.194;2022-12-07T11:15:50;90983.63;;;12.95;74.03
5952;BME280;3001;42.622;23.194;2022-12-07T11:18:25;90977.28;;;13.16;74.80
5952;BME280;3001;42.622;23.194;2022-12-07T11:20:56;90975.16;;;13.30;73.42
5952;BME280;3001;42.622;23.194;2022-12-07T11:23:43;90972.50;;;13.18;71.38
5952;BME280;3001;42.622;23.194;2022-12-07T11:26:18;90977.88;;;13.34;72.05
5952;BME280;3001;42.622;23.194;2022-12-07T11:29:15;90969.28;;;13.45;71.58
5952;BME280;3001;42.622;23.194;2022-12-07T11:31:53;90964.28;;;13.28;71.59
5952;BME280;3001;42.622;23.194;2022-12-07T11:34:25;90964.97;;;13.49;70.76
5952;BME280;3001;42.622;23.194;2022-12-07T11:36:56;90967.56;;;13.37;69.85
5952;BME280;3001;42.622;23.194;2022-12-07T11:39:26;90971.91;;;13.33;71.02
5952;BME280;3001;42.622;23.194;2022-12-07T11:42:00;90963.19;;;13.29;71.50
5952;BME280;3001;42.622;23.194;2022-12-07T11:44:34;90969.09;;;13.50;70.76
5952;BME280;3001;42.622;23.194;2022-12-07T11:47:08;90970.19;;;13.61;71.01
5952;BME280;3001;42.622;23.194;2022-12-07T11:49:42;90967.25;;;13.75;69.56
5952;BME280;3001;42.622;23.194;2022-12-07T11:52:18;90977.03;;;13.66;68.75
5952;BME280;3001;42.622;23.194;2022-12-07T11:54:49;90971.69;;;13.62;69.48
5952;BME280;3001;42.622;23.194;2022-12-07T11:57:24;90964.28;;;13.28;69.87
5952;BME280;3001;42.622;23.194;2022-12-07T11:59:59;90965.16;;;13.32;70.72
5952;BME280;3001;42.622;23.194;2022-12-07T12:02:35;90963.25;;;13.09;72.06
5952;BME280;3001;42.622;23.194;2022-12-07T12:05:13;90968.59;;;13.24;71.70
5952;BME280;3001;42.622;23.194;2022-12-07T12:07:42;90956.38;;;13.04;73.34
5952;BME280;3001;42.622;23.194;2022-12-07T12:10:17;90959.56;;;12.98;73.30
5952;BME280;3001;42.622;23.194;2022-12-07T12:13:30;90950.44;;;12.83;73.26
5952;BME280;3001;42.622;23.194;2022-12-07T12:16:22;90954.38;;;12.89;73.80
5952;BME280;3001;42.622;23.194;2022-12-07T12:19:03;90944.22;;;12.96;73.29
5952;BME280;3001;42.622;23.194;2022-12-07T12:21:38;90939.13;;;13.00;73.66
5952;BME280;3001;42.622;23.194;2022-12-07T12:24:11;90922.66;;;12.87;74.01
5952;BME280;3001;42.622;23.194;2022-12-07T12:26:49;90921.63;;;12.68;74.70
5952;BME280;3001;42.622;23.194;2022-12-07T12:29:21;90921.25;;;12.57;75.14
5952;BME280;3001;42.622;23.194;2022-12-07T12:32:06;90925.38;;;12.58;75.81
5952;BME280;3001;42.622;23.194;2022-12-07T12:34:39;90918.44;;;12.62;75.52
5952;BME280;3001;42.622;23.194;2022-12-07T12:37:38;90915.84;;;12.95;74.92
5952;BME280;3001;42.622;23.194;2022-12-07T12:43:48;90905.81;;;13.41;73.41
5952;BME280;3001;42.622;23.194;2022-12-07T12:46:51;90919.50;;;13.74;73.07
5952;BME280;3001;42.622;23.194;2022-12-07T12:49:37;90914.81;;;14.03;69.73
5952;BME280;3001;42.622;23.194;2022-12-07T12:55:17;90928.72;;;13.95;69.49
5952;BME280;3001;42.622;23.194;2022-12-07T12:57:48;90918.28;;;13.95;70.41
5952;BME280;3001;42.622;23.194;2022-12-07T13:00:34;90926.34;;;14.02;69.14
5952;BME280;3001;42.622;23.194;2022-12-07T13:03:01;90932.72;;;14.29;68.35
5952;BME280;3001;42.622;23.194;2022-12-07T13:05:30;90932.06;;;14.32;67.83
5952;BME280;3001;42.622;23.194;2022-12-07T13:07:59;90933.19;;;14.19;68.78
5952;BME280;3001;42.622;23.194;2022-12-07T13:10:37;90934.06;;;14.11;69.55
5952;BME280;3001;42.622;23.194;2022-12-07T13:13:28;90929.81;;;14.06;69.19
5952;BME280;3001;42.622;23.194;2022-12-07T13:22:59;90942.00;;;13.90;70.63
5952;BME280;3001;42.622;23.194;2022-12-07T13:25:35;90935.03;;;14.06;69.95
5952;BME280;3001;42.622;23.194;2022-12-07T13:28:09;90940.25;;;14.06;69.68
5952;BME280;3001;42.622;23.194;2022-12-07T13:30:45;90948.75;;;14.03;69.40
5952;BME280;3001;42.622;23.194;2022-12-07T13:33:12;90946.91;;;13.92;70.34
5952;BME280;3001;42.622;23.194;2022-12-07T13:35:41;90939.94;;;13.96;70.91
5952;BME280;3001;42.622;23.194;2022-12-07T13:38:22;90947.78;;;13.96;69.75
5952;BME280;3001;42.622;23.194;2022-12-07T13:41:00;90939.91;;;14.08;69.27
5952;BME280;3001;42.622;23.194;2022-12-07T13:43:27;90935.25;;;13.89;68.82
5952;BME280;3001;42.622;23.194;2022-12-07T13:45:56;90925.47;;;13.75;68.52
5952;BME280;3001;42.622;23.194;2022-12-07T13:48:29;90936.66;;;13.87;68.83
5952;BME280;3001;42.622;23.194;2022-12-07T13:50:58;90921.66;;;13.96;68.00